Time;durP1;ratioP1;P1;durP2;ratioP2;P2;SDS_P1;SDS_P2;PMS_P1;PMS_P2;Temp;Humidity;BMP_temperature;BMP_pressure;BME280_temperature;BME280_humidity;BME280_pressure;Samples;Min_cycle;Max_cycle;Signal;HPM_P1;HPM_P2
2022/11/30 00:01:38;;;;;;;20.67;7.22;;;8.70;99.90;;;8.62;100.00;101573.47;5166240;28;20046;-73
2022/11/30 00:04:12;;;;;;;21.42;8.27;;;8.70;99.90;;;8.62;100.00;101576.06;5165076;28;20057;-73
2022/11/30 00:06:45;;;;;;;23.05;8.85;;;8.70;99.90;;;8.60;100.00;101573.34;5164949;28;20530;-73
2022/11/30 00:09:17;;;;;;;21.95;7.60;;;8.70;99.90;;;8.60;100.00;101567.28;5155798;28;20522;-73
2022/11/30 00:11:50;;;;;;;20.80;7.38;;;8.70;99.90;;;8.60;100.00;101572.47;5144388;28;20527;-73
2022/11/30 00:14:24;;;;;;;21.35;7.60;;;8.70;99.90;;;8.61;100.00;101574.28;5144767;28;20558;-72
2022/11/30 00:16:58;;;;;;;18.20;7.22;;;8.70;99.90;;;8.62;100.00;101565.66;5221264;23;20852;-69
2022/11/30 00:19:31;;;;;;;19.52;6.72;;;8.70;99.90;;;8.62;100.00;101570.88;5184303;28;20077;-71
2022/11/30 00:22:04;;;;;;;19.55;7.43;;;8.70;99.90;;;8.62;100.00;101569.16;5186227;28;20046;-70
2022/11/30 00:24:36;;;;;;;19.80;7.38;;;8.70;99.90;;;8.63;100.00;101577.84;5185607;28;20426;-71
2022/11/30 00:27:08;;;;;;;19.40;7.60;;;8.70;99.90;;;8.63;100.00;101581.34;5186026;28;20054;-71
2022/11/30 00:29:41;;;;;;;20.92;7.05;;;8.70;99.90;;;8.63;100.00;101583.94;5201233;28;20056;-69
2022/11/30 00:32:13;;;;;;;15.98;6.32;;;8.70;99.90;;;8.65;100.00;101591.81;5186313;28;20049;-70
2022/11/30 00:34:46;;;;;;;20.30;7.90;;;8.70;99.90;;;8.64;100.00;101582.22;5185728;28;20050;-70
2022/11/30 00:37:19;;;;;;;23.08;7.82;;;8.70;99.90;;;8.62;100.00;101582.16;5184560;28;20503;-70
2022/11/30 00:39:52;;;;;;;20.13;7.65;;;8.70;99.90;;;8.61;100.00;101579.47;5185797;28;20410;-69
2022/11/30 00:42:24;;;;;;;20.05;7.13;;;8.70;99.90;;;8.61;100.00;101575.19;5186274;28;20046;-68
2022/11/30 00:44:56;;;;;;;21.15;8.38;;;8.70;99.90;;;8.62;100.00;101576.06;5185608;28;20521;-68
2022/11/30 00:47:29;;;;;;;21.60;8.45;;;8.70;99.90;;;8.60;100.00;101578.56;5185482;28;20057;-70
2022/11/30 00:50:03;;;;;;;26.13;9.02;;;8.70;99.90;;;8.56;100.00;101576.63;5185629;28;20092;-71
2022/11/30 00:52:35;;;;;;;26.13;9.43;;;8.60;99.90;;;8.53;100.00;101575.53;5184256;28;20498;-72
2022/11/30 00:55:09;;;;;;;31.77;9.85;;;8.60;99.90;;;8.52;100.00;101573.75;5184070;28;20070;-70
2022/11/30 00:57:41;;;;;;;29.75;9.88;;;8.60;99.90;;;8.49;100.00;101584.88;5185455;28;20046;-70
2022/11/30 01:00:14;;;;;;;26.73;8.60;;;8.60;99.90;;;8.47;100.00;101576.09;5185298;28;20056;-70
2022/11/30 01:02:46;;;;;;;29.50;10.30;;;8.60;99.90;;;8.46;100.00;101573.41;5185405;28;20053;-70
2022/11/30 01:05:21;;;;;;;26.63;10.27;;;8.50;99.90;;;8.45;100.00;101579.44;5185316;28;20045;-71
2022/11/30 01:07:53;;;;;;;28.92;10.20;;;8.50;99.90;;;8.44;100.00;101575.94;5185236;28;20128;-71
2022/11/30 01:10:25;;;;;;;26.77;9.05;;;8.50;99.90;;;8.46;100.00;101579.50;5185330;28;20491;-69
2022/11/30 01:12:57;;;;;;;24.30;8.07;;;8.50;99.90;;;8.49;100.00;101568.41;5185042;28;20513;-71
2022/11/30 01:15:30;;;;;;;31.92;10.55;;;8.50;99.90;;;8.50;100.00;101575.38;5185260;28;20046;-68
2022/11/30 01:18:02;;;;;;;30.17;11.20;;;8.60;99.90;;;8.48;100.00;101570.13;5184930;28;20053;-69
2022/11/30 01:20:40;;;;;;;32.25;9.98;;;8.60;99.90;;;8.47;100.00;101572.59;5184992;28;20380;-69
2022/11/30 01:23:12;;;;;;;39.55;12.05;;;8.60;99.90;;;8.43;100.00;101569.84;5185155;28;20042;-68
2022/11/30 01:25:55;;;;;;;31.50;10.90;;;8.50;99.90;;;8.39;100.00;101559.19;5184908;28;20125;-70
2022/11/30 01:28:28;;;;;;;36.42;11.98;;;8.50;99.90;;;8.38;100.00;101573.88;5185189;28;20119;-70
2022/11/30 01:31:02;;;;;;;42.42;13.43;;;8.50;99.90;;;8.36;100.00;101574.63;5184824;28;20064;-69
2022/11/30 01:33:34;;;;;;;42.42;12.23;;;8.50;99.90;;;8.33;100.00;101577.00;5184625;28;20048;-71
2022/11/30 01:36:13;;;;;;;30.27;10.00;;;8.50;99.90;;;8.35;100.00;101580.59;5184784;28;20053;-69
2022/11/30 01:38:47;;;;;;;38.22;12.27;;;8.50;99.90;;;8.33;100.00;101577.88;5183140;28;20053;-71
2022/11/30 01:41:22;;;;;;;41.15;12.00;;;8.40;99.90;;;8.29;100.00;101575.94;5184781;28;20071;-70
2022/11/30 01:43:57;;;;;;;38.05;11.60;;;8.40;99.90;;;8.26;100.00;101580.94;5184594;28;20042;-69
2022/11/30 01:46:39;;;;;;;42.65;13.35;;;8.40;99.90;;;8.25;100.00;101584.38;5184557;28;20049;-69
2022/11/30 01:49:19;;;;;;;36.03;11.65;;;8.40;99.90;;;8.24;100.00;101581.69;5184511;28;20052;-72
2022/11/30 01:51:58;;;;;;;38.67;11.77;;;8.40;99.90;;;8.24;100.00;101577.38;5184542;28;20052;-69
2022/11/30 01:54:36;;;;;;;34.55;11.13;;;8.40;99.90;;;8.26;100.00;101574.88;5184688;28;20049;-69
2022/11/30 01:57:15;;;;;;;42.33;11.60;;;8.40;99.90;;;8.27;100.00;101582.75;5183230;28;20052;-69
2022/11/30 01:59:50;;;;;;;36.75;12.48;;;8.40;99.90;;;8.25;100.00;101579.16;5184357;28;20471;-69
2022/11/30 02:02:32;;;;;;;40.90;11.63;;;8.40;99.90;;;8.26;100.00;101575.75;5184122;28;20060;-69
2022/11/30 02:05:06;;;;;;;44.63;12.07;;;8.40;99.90;;;8.28;100.00;101576.75;5199527;28;20084;-69
2022/11/30 02:07:41;;;;;;;32.90;9.95;;;8.40;99.90;;;8.30;100.00;101572.53;5184154;28;20169;-69
2022/11/30 02:10:16;;;;;;;37.63;10.77;;;8.50;99.90;;;8.31;100.00;101576.91;5182868;28;20426;-71
2022/11/30 02:13:25;;;;;;;39.85;11.75;;;8.40;99.90;;;8.31;100.00;101583.81;5183930;28;20482;-69
2022/11/30 02:16:06;;;;;;;30.45;9.23;;;8.50;99.90;;;8.30;100.00;101577.72;5180819;28;20085;-70
2022/11/30 02:18:49;;;;;;;35.38;10.63;;;8.50;99.90;;;8.30;100.00;101577.72;5183799;28;20046;-71
2022/11/30 02:21:30;;;;;;;37.47;9.85;;;8.50;99.90;;;8.31;100.00;101578.63;5184209;28;20410;-70
2022/11/30 02:24:39;;;;;;;34.65;10.75;;;8.50;99.90;;;8.25;100.00;101576.56;5182766;28;20091;-69
2022/11/30 02:27:25;;;;;;;45.45;12.00;;;8.50;99.90;;;8.24;100.00;101574.78;5183971;28;20058;-70
2022/11/30 02:30:03;;;;;;;44.92;12.50;;;8.50;99.90;;;8.23;100.00;101570.41;5183871;28;20048;-71
2022/11/30 02:32:40;;;;;;;46.63;13.30;;;8.40;99.90;;;8.21;100.00;101566.81;5183775;28;20052;-69
2022/11/30 02:35:17;;;;;;;44.00;12.27;;;8.40;99.90;;;8.22;100.00;101571.22;5184020;28;20728;-70
2022/11/30 02:37:54;;;;;;;51.40;14.13;;;8.40;99.90;;;8.18;100.00;101569.25;5183686;28;20057;-68
2022/11/30 02:40:27;;;;;;;42.80;12.48;;;8.40;99.90;;;8.19;100.00;101571.03;5183936;28;20096;-70
2022/11/30 02:43:04;;;;;;;47.47;12.77;;;8.40;99.90;;;8.20;100.00;101572.81;5183771;28;20045;-69
2022/11/30 02:45:45;;;;;;;42.75;11.77;;;8.40;99.90;;;8.21;100.00;101564.22;5183417;28;20619;-69
2022/11/30 02:48:21;;;;;;;35.38;11.10;;;8.40;99.90;;;8.24;100.00;101561.81;5182542;28;20054;-70
2022/11/30 02:51:01;;;;;;;37.63;11.07;;;8.40;99.90;;;8.25;100.00;101568.78;5183563;28;20052;-70
2022/11/30 02:53:33;;;;;;;37.15;11.40;;;8.40;99.90;;;8.25;100.00;101573.09;5184109;28;20045;-70
2022/11/30 02:56:06;;;;;;;44.10;12.63;;;8.40;99.90;;;8.25;100.00;101573.97;5183749;28;20049;-71
2022/11/30 02:58:39;;;;;;;37.17;11.68;;;8.40;99.90;;;8.25;100.00;101579.16;5182340;28;20284;-72
2022/11/30 03:01:13;;;;;;;38.60;11.07;;;8.40;99.90;;;8.28;100.00;101575.84;5183605;28;20060;-69
2022/11/30 03:03:46;;;;;;;29.00;10.00;;;8.40;99.90;;;8.32;100.00;101576.09;5183316;28;20050;-69
2022/11/30 03:06:19;;;;;;;34.53;9.32;;;8.50;99.90;;;8.34;100.00;101587.47;5181994;28;20383;-71
2022/11/30 03:08:51;;;;;;;29.70;9.15;;;8.50;99.90;;;8.36;100.00;101580.72;5183581;28;20124;-69
2022/11/30 03:11:24;;;;;;;35.03;9.75;;;8.50;99.90;;;8.34;100.00;101587.47;5183569;28;20124;-71
2022/11/30 03:13:56;;;;;;;32.50;10.40;;;8.50;99.90;;;8.35;100.00;101581.53;5182015;28;20495;-70
2022/11/30 03:16:30;;;;;;;39.75;10.07;;;8.50;99.90;;;8.35;100.00;101585.78;5183275;28;20050;-68
2022/11/30 03:19:02;;;;;;;38.05;10.57;;;8.50;99.90;;;8.34;100.00;101595.25;5181993;28;20061;-71
2022/11/30 03:21:34;;;;;;;33.83;9.77;;;8.40;99.90;;;8.33;100.00;101587.38;5183326;28;20451;-71
2022/11/30 03:24:07;;;;;;;34.50;10.85;;;8.50;99.90;;;8.32;100.00;101590.81;5183565;28;20513;-74
2022/11/30 03:26:40;;;;;;;35.70;9.90;;;8.40;99.90;;;8.31;100.00;101595.09;5183251;28;20561;-68
2022/11/30 03:29:12;;;;;;;39.65;11.43;;;8.40;99.90;;;8.30;100.00;101589.81;5184747;28;20042;-71
2022/11/30 03:31:46;;;;;;;37.92;11.35;;;8.40;99.90;;;8.28;100.00;101592.34;5186952;28;20118;-71
2022/11/30 03:34:18;;;;;;;40.65;12.18;;;8.40;99.90;;;8.28;100.00;101604.41;5186991;28;20462;-69
2022/11/30 03:36:50;;;;;;;42.05;13.13;;;8.40;99.90;;;8.25;100.00;101594.75;5187009;28;20052;-70
2022/11/30 03:39:23;;;;;;;38.50;12.85;;;8.40;99.90;;;8.22;100.00;101605.00;5187000;28;20044;-68
2022/11/30 03:41:55;;;;;;;45.92;13.57;;;8.40;99.90;;;8.20;100.00;101598.78;5186957;28;20092;-69
2022/11/30 03:44:28;;;;;;;39.25;12.15;;;8.30;99.90;;;8.21;100.00;101597.97;5186774;28;20052;-70
2022/11/30 03:47:02;;;;;;;35.63;11.10;;;8.30;99.90;;;8.21;100.00;101591.88;5185590;28;20137;-69
2022/11/30 03:49:35;;;;;;;34.63;10.38;;;8.30;99.90;;;8.22;100.00;101598.91;5187199;28;20139;-69
2022/11/30 03:52:07;;;;;;;31.20;9.75;;;8.30;99.90;;;8.24;100.00;101592.06;5186715;28;20053;-69
2022/11/30 03:54:39;;;;;;;36.65;10.23;;;8.30;99.90;;;8.23;100.00;101591.19;5186651;28;20053;-69
2022/11/30 03:57:11;;;;;;;40.65;10.45;;;8.30;99.90;;;8.22;100.00;101599.78;5186800;28;20054;-69
2022/11/30 03:59:43;;;;;;;31.83;9.93;;;8.40;99.90;;;8.23;100.00;101593.78;5186535;28;20080;-70
2022/11/30 04:02:16;;;;;;;36.88;11.25;;;8.40;99.90;;;8.26;100.00;101593.94;5186568;28;20078;-70
2022/11/30 04:04:49;;;;;;;31.02;8.95;;;8.40;99.90;;;8.28;100.00;101594.94;5185296;28;20042;-68
2022/11/30 04:07:22;;;;;;;37.25;9.98;;;8.40;99.90;;;8.29;100.00;101595.84;5186614;28;20057;-69
2022/11/30 04:09:54;;;;;;;30.25;9.05;;;8.40;99.90;;;8.30;100.00;101588.13;5201562;28;20469;-71
2022/11/30 04:12:26;;;;;;;30.88;8.48;;;8.40;99.90;;;8.31;100.00;101595.09;5186350;28;20046;-70
2022/11/30 04:14:58;;;;;;;29.67;9.45;;;8.40;99.90;;;8.31;100.00;101589.00;5186236;28;20506;-71
2022/11/30 04:17:32;;;;;;;30.83;8.23;;;8.40;99.90;;;8.31;100.00;101587.31;5201231;28;20073;-69
2022/11/30 04:20:06;;;;;;;30.33;9.73;;;8.40;99.90;;;8.30;100.00;101582.94;5186604;28;20052;-70
2022/11/30 04:22:38;;;;;;;30.92;8.80;;;8.40;99.90;;;8.31;100.00;101589.00;5185997;28;20049;-70
2022/11/30 04:25:10;;;;;;;28.25;9.35;;;8.40;99.90;;;8.32;100.00;101586.50;5186280;28;20499;-69
2022/11/30 04:27:47;;;;;;;25.33;8.32;;;8.40;99.90;;;8.32;100.00;101578.69;5186065;28;20050;-70
2022/11/30 04:30:19;;;;;;;25.90;8.52;;;8.40;99.90;;;8.32;100.00;101581.31;5186196;28;20041;-70
2022/11/30 04:32:53;;;;;;;24.55;8.57;;;8.50;99.90;;;8.33;100.00;101577.88;5186465;28;20509;-70
2022/11/30 04:35:25;;;;;;;28.92;8.57;;;8.50;99.90;;;8.33;100.00;101577.88;5185884;28;20072;-69
2022/11/30 04:37:57;;;;;;;28.75;9.20;;;8.50;99.90;;;8.34;100.00;101578.78;5185740;28;20151;-70
2022/11/30 04:40:30;;;;;;;38.53;12.32;;;8.40;99.90;;;8.31;100.00;101587.31;5185348;28;20046;-69
2022/11/30 04:43:02;;;;;;;34.15;10.75;;;8.50;99.90;;;8.29;100.00;101590.66;5184424;28;20050;-70
2022/11/30 04:45:35;;;;;;;30.48;8.85;;;8.40;99.90;;;8.30;100.00;101588.13;5186172;28;20054;-70
2022/11/30 04:48:09;;;;;;;32.40;9.38;;;8.50;99.90;;;8.31;100.00;101594.22;5185413;28;20154;-69
2022/11/30 04:50:41;;;;;;;27.05;8.98;;;8.40;99.90;;;8.32;100.00;101593.41;5185581;28;20045;-70
2022/11/30 04:53:14;;;;;;;33.72;9.73;;;8.50;99.90;;;8.33;100.00;101588.28;5184202;28;20058;-70
2022/11/30 04:55:46;;;;;;;32.53;8.93;;;8.50;99.90;;;8.34;100.00;101595.25;5200650;28;20054;-68
2022/11/30 04:58:18;;;;;;;31.35;9.82;;;8.50;99.90;;;8.34;100.00;101595.25;5184039;28;20050;-70
2022/11/30 05:00:53;;;;;;;31.30;9.85;;;8.50;99.90;;;8.34;100.00;101595.25;5185457;28;20050;-70
2022/11/30 05:03:27;;;;;;;33.95;9.25;;;8.50;99.90;;;8.33;100.00;101592.59;5183919;28;20532;-68
2022/11/30 05:05:59;;;;;;;37.72;10.70;;;8.50;99.90;;;8.33;100.00;101598.66;5185496;28;20054;-71
2022/11/30 05:08:31;;;;;;;37.25;10.50;;;8.40;99.90;;;8.33;100.00;101588.28;5185499;28;20409;-71
2022/11/30 05:11:04;;;;;;;32.67;11.35;;;8.50;99.90;;;8.34;100.00;101600.47;5185268;28;20046;-71
2022/11/30 05:13:36;;;;;;;37.30;10.93;;;8.50;99.90;;;8.33;100.00;101601.28;5184940;28;20050;-68
2022/11/30 05:16:09;;;;;;;34.72;9.98;;;8.50;99.90;;;8.34;100.00;101594.38;5185111;28;20056;-69
2022/11/30 05:18:42;;;;;;;46.35;12.20;;;8.50;99.90;;;8.33;100.00;101595.19;5185280;28;20046;-69
2022/11/30 05:21:15;;;;;;;44.50;12.85;;;8.50;99.90;;;8.34;100.00;101591.78;5185053;28;20118;-70
2022/11/30 05:23:47;;;;;;;47.95;12.80;;;8.50;99.90;;;8.33;100.00;101601.28;5185093;28;20046;-71
2022/11/30 05:26:19;;;;;;;37.70;11.93;;;8.50;99.90;;;8.33;100.00;101603.88;5185026;28;20100;-70
2022/11/30 05:28:52;;;;;;;38.70;11.10;;;8.50;99.90;;;8.33;100.00;101601.28;5185123;28;20133;-72
2022/11/30 05:31:25;;;;;;;36.53;11.02;;;8.50;99.90;;;8.35;100.00;101596.19;5185035;28;20045;-69
2022/11/30 05:33:59;;;;;;;37.05;11.13;;;8.50;99.90;;;8.36;100.00;101596.31;5184528;28;20050;-70
2022/11/30 05:36:31;;;;;;;41.88;12.30;;;8.50;99.90;;;8.39;100.00;101600.75;5184826;28;20049;-69
2022/11/30 05:39:04;;;;;;;41.33;11.27;;;8.50;99.90;;;8.38;100.00;101602.47;5184870;28;20053;-69
2022/11/30 05:41:36;;;;;;;33.95;10.95;;;8.50;99.90;;;8.38;100.00;101599.88;5184360;28;20057;-68
2022/11/30 05:44:09;;;;;;;40.97;11.40;;;8.50;99.90;;;8.39;100.00;101596.47;5184699;28;20049;-70
2022/11/30 05:46:41;;;;;;;45.67;12.45;;;8.50;99.90;;;8.34;100.00;101605.66;5185136;28;20045;-69
2022/11/30 05:49:14;;;;;;;40.20;11.15;;;8.50;99.90;;;8.35;100.00;101597.13;5184579;28;20053;-67
2022/11/30 05:51:47;;;;;;;38.80;12.35;;;8.50;99.90;;;8.33;100.00;101603.88;5183802;28;20419;-70
2022/11/30 05:54:20;;;;;;;48.90;13.52;;;8.50;99.90;;;8.33;100.00;101598.66;5184397;28;20136;-71
2022/11/30 05:56:52;;;;;;;36.90;10.60;;;8.50;99.90;;;8.34;100.00;101609.94;5184527;28;20125;-70
2022/11/30 05:59:24;;;;;;;65.93;17.77;;;8.50;99.90;;;8.34;100.00;101605.66;5183118;28;20046;-68
2022/11/30 06:01:56;;;;;;;49.08;13.40;;;8.50;99.90;;;8.33;100.00;101616.84;5184650;28;20044;-69
2022/11/30 06:04:30;;;;;;;42.97;12.57;;;8.50;99.90;;;8.33;100.00;101609.06;5184525;28;20411;-69
2022/11/30 06:07:03;;;;;;;38.15;11.20;;;8.50;99.90;;;8.32;100.00;101609.88;5184465;28;20133;-68
2022/11/30 06:09:36;;;;;;;36.53;11.88;;;8.50;99.90;;;8.32;100.00;101611.59;5184496;28;20050;-70
2022/11/30 06:12:09;;;;;;;39.58;12.07;;;8.50;99.90;;;8.31;100.00;101613.28;5199883;28;20056;-69
2022/11/30 06:14:41;;;;;;;41.50;11.60;;;8.50;99.90;;;8.30;100.00;101614.09;5184137;28;20053;-69
2022/11/30 06:17:14;;;;;;;43.85;11.50;;;8.50;99.90;;;8.25;100.00;101610.34;5206031;23;20120;-81
2022/11/30 06:19:48;;;;;;;41.60;12.02;;;8.50;99.90;;;8.25;100.00;101620.72;5181076;28;20034;-80
2022/11/30 06:22:20;;;;;;;41.67;12.40;;;8.50;99.90;;;8.24;100.00;101618.94;5156502;28;20046;-79
2022/11/30 06:24:54;;;;;;;38.78;12.63;;;8.50;99.90;;;8.24;100.00;101621.53;5164116;28;20435;-80
2022/11/30 06:27:31;;;;;;;40.38;11.63;;;8.50;99.90;;;8.26;100.00;101626.81;5162388;28;20050;-80
2022/11/30 06:30:04;;;;;;;38.42;11.90;;;8.50;99.90;;;8.29;100.00;101620.09;5164265;28;20125;-80
2022/11/30 06:32:36;;;;;;;36.72;11.73;;;8.50;99.90;;;8.32;100.00;101617.66;5163036;28;20060;-80
2022/11/30 06:35:10;;;;;;;31.05;9.88;;;8.50;99.90;;;8.33;100.00;101614.25;5162707;28;20128;-80
2022/11/30 06:37:44;;;;;;;26.88;10.52;;;8.50;99.90;;;8.35;100.00;101632.56;5163606;28;20150;-79
2022/11/30 06:40:16;;;;;;;33.95;10.27;;;8.60;99.90;;;8.37;100.00;101636.16;5163495;28;20403;-80
2022/11/30 06:42:49;;;;;;;32.58;10.43;;;8.50;99.90;;;8.37;100.00;101626.66;5163795;28;20470;-79
2022/11/30 06:45:22;;;;;;;51.55;14.48;;;8.60;99.90;;;8.37;100.00;101625.78;5162790;28;20056;-80
2022/11/30 06:47:55;;;;;;;40.50;12.15;;;8.60;99.90;;;8.36;100.00;101624.88;5162200;28;20426;-80
2022/11/30 06:50:29;;;;;;;44.95;13.70;;;8.50;99.90;;;8.35;100.00;101623.09;5163659;28;20105;-79
2022/11/30 06:53:01;;;;;;;39.38;12.18;;;8.50;99.90;;;8.38;100.00;101638.84;5147756;28;20046;-80
2022/11/30 06:55:34;;;;;;;41.22;12.32;;;8.50;99.90;;;8.39;100.00;101635.44;5165184;28;20061;-80
2022/11/30 06:58:07;;;;;;;41.10;12.75;;;8.60;99.90;;;8.39;100.00;101626.75;5164964;28;20050;-79
2022/11/30 07:00:41;;;;;;;45.78;15.35;;;8.50;99.90;;;8.41;100.00;101643.31;5169525;28;20610;-80
2022/11/30 07:03:14;;;;;;;56.45;16.80;;;8.50;99.90;;;8.33;100.00;101640.25;5163665;28;20112;-80
2022/11/30 07:05:47;;;;;;;55.33;15.15;;;8.50;99.90;;;8.31;100.00;101640.97;5166972;28;20418;-82
2022/11/30 07:08:20;;;;;;;49.25;15.18;;;8.50;99.90;;;8.29;100.00;101643.50;5166812;28;20101;-82
2022/11/30 07:10:52;;;;;;;47.10;14.48;;;8.50;99.90;;;8.30;100.00;101645.28;5166013;28;20046;-81
2022/11/30 07:13:24;;;;;;;49.75;15.02;;;8.50;99.90;;;8.28;100.00;101652.09;5182067;28;20514;-82
2022/11/30 07:15:57;;;;;;;49.35;14.98;;;8.50;99.90;;;8.30;100.00;101645.28;5167204;28;20502;-79
2022/11/30 07:18:31;;;;;;;41.92;12.75;;;8.50;99.90;;;8.30;100.00;101655.66;5165049;28;20050;-79
2022/11/30 07:21:06;;;;;;;39.50;13.45;;;8.50;99.90;;;8.26;100.00;101653.69;5165484;28;20046;-79
2022/11/30 07:26:29;;;;;;;39.80;14.07;;;8.50;99.90;;;8.19;100.00;101653.25;5151753;28;20108;-80
2022/11/30 07:29:01;;;;;;;43.50;13.57;;;8.40;99.90;;;8.14;100.00;101658.16;5166221;28;20058;-79
2022/11/30 07:31:37;;;;;;;36.53;12.32;;;8.40;99.90;;;8.15;100.00;101665.19;5165078;28;20399;-80
2022/11/30 07:34:11;;;;;;;31.88;12.30;;;8.40;99.90;;;8.15;100.00;101665.19;5181217;28;20058;-79
2022/11/30 07:36:47;;;;;;;35.95;11.45;;;8.40;99.90;;;8.15;100.00;101665.19;5180698;28;20116;-80
2022/11/30 07:39:19;;;;;;;33.42;11.68;;;8.30;99.90;;;8.16;100.00;101662.66;5165725;28;20076;-80
2022/11/30 07:41:52;;;;;;;32.58;10.82;;;8.40;99.90;;;8.16;100.00;101661.78;5165786;28;20042;-80
2022/11/30 07:44:24;;;;;;;18.50;6.53;;;8.30;99.90;;;8.36;100.00;101666.44;5148832;28;20054;-81
2022/11/30 07:46:56;;;;;;;42.95;12.77;;;8.60;99.90;;;8.94;100.00;101664.53;5148594;28;20086;-78
2022/11/30 07:49:30;;;;;;;29.98;10.27;;;9.10;99.90;;;9.00;100.00;101670.84;5164649;28;20050;-79
2022/11/30 07:52:08;;;;;;;31.67;11.38;;;9.20;99.90;;;9.00;100.00;101678.66;5164788;28;20046;-80
2022/11/30 07:54:41;;;;;;;30.42;11.00;;;9.20;99.90;;;8.98;100.00;101671.66;5164768;28;20061;-80
2022/11/30 07:57:14;;;;;;;29.85;11.15;;;9.20;99.90;;;8.97;100.00;101674.19;5148487;28;20050;-79
2022/11/30 07:59:46;;;;;;;25.17;9.27;;;9.20;99.90;;;8.87;100.00;101677.09;5165383;28;20149;-80
2022/11/30 08:02:18;;;;;;;25.85;9.45;;;9.10;99.90;;;8.74;100.00;101680.72;5181628;28;20046;-80
2022/11/30 08:04:51;;;;;;;22.80;8.63;;;9.00;99.90;;;8.69;100.00;101679.56;5164434;28;20057;-79
2022/11/30 08:07:26;;;;;;;23.70;9.73;;;8.90;99.90;;;8.63;100.00;101692.22;5164401;28;20449;-79
2022/11/30 08:09:59;;;;;;;;;;;8.80;99.90;;;8.55;100.00;101688.28;5164972;28;20421;-79
2022/11/30 08:12:31;;;;;;;27.58;10.05;;;8.80;99.90;;;8.50;100.00;101694.94;5164715;28;19922;-80
2022/11/30 08:15:06;;;;;;;23.70;9.70;;;8.70;99.90;;;8.46;100.00;101687.75;5165100;28;20403;-80
2022/11/30 08:17:39;;;;;;;31.77;10.55;;;8.70;99.90;;;8.37;100.00;101688.13;5164167;28;20141;-81
2022/11/30 08:20:13;;;;;;;26.83;10.43;;;8.60;99.90;;;8.31;100.00;101691.22;5148428;28;20176;-80
2022/11/30 08:22:47;;;;;;;22.95;8.90;;;8.50;99.90;;;8.24;100.00;101702.06;5148118;28;20419;-80
2022/11/30 08:25:20;;;;;;;23.08;9.20;;;8.50;99.90;;;8.23;100.00;101700.28;5165639;28;20070;-79
2022/11/30 08:27:52;;;;;;;20.52;7.65;;;8.40;99.90;;;8.23;100.00;101691.59;5147979;28;20423;-79
2022/11/30 08:30:25;;;;;;;25.60;10.63;;;8.50;99.90;;;8.23;100.00;101696.78;5147907;28;20051;-80
2022/11/30 08:32:58;;;;;;;20.83;8.82;;;8.50;99.90;;;8.24;100.00;101703.78;5164287;28;20057;-80
2022/11/30 08:35:33;;;;;;;32.78;12.02;;;8.50;99.90;;;8.24;100.00;101707.25;5164524;28;20109;-79
2022/11/30 08:38:07;;;;;;;24.88;9.48;;;8.40;99.90;;;8.20;100.00;101709.59;5156544;28;20051;-79
2022/11/30 08:40:39;;;;;;;28.58;10.70;;;8.40;99.90;;;8.16;100.00;101705.94;5164001;28;20047;-80
2022/11/30 08:43:12;;;;;;;23.23;8.02;;;8.40;99.90;;;8.14;100.00;101715.31;5164021;28;20450;-80
2022/11/30 08:45:45;;;;;;;23.88;9.45;;;8.40;99.90;;;8.11;100.00;101715.13;5163936;28;20081;-80
2022/11/30 08:48:17;;;;;;;28.50;10.23;;;8.30;99.90;;;8.08;100.00;101717.53;5163864;28;20438;-79
2022/11/30 08:50:49;;;;;;;28.08;11.20;;;8.30;99.90;;;8.06;100.00;101717.47;5180119;28;20064;-80
2022/11/30 08:53:23;;;;;;;26.60;10.73;;;8.30;99.90;;;8.06;100.00;101717.47;5163674;28;20426;-81
2022/11/30 08:55:57;;;;;;;26.30;9.93;;;8.30;99.90;;;8.06;100.00;101714.84;5163852;28;20054;-80
2022/11/30 08:58:33;;;;;;;25.70;10.02;;;8.30;99.90;;;8.06;100.00;101721.75;5163533;28;20502;-79
2022/11/30 09:01:11;;;;;;;26.45;10.05;;;8.30;99.90;;;8.06;100.00;101726.94;5163888;28;20039;-80
2022/11/30 09:03:45;;;;;;;26.25;9.27;;;8.30;99.90;;;8.05;100.00;101725.16;5165140;28;20082;-80
2022/11/30 09:06:20;;;;;;;25.58;10.60;;;8.30;99.90;;;8.03;100.00;101719.88;5147592;28;20057;-80
2022/11/30 09:08:58;;;;;;;32.83;11.13;;;8.30;99.90;;;8.02;100.00;101720.69;5163332;28;20133;-80
2022/11/30 09:11:33;;;;;;;26.67;10.38;;;8.30;99.90;;;8.03;100.00;101726.78;5179861;28;20035;-79
2022/11/30 09:14:07;;;;;;;27.58;11.10;;;8.20;99.90;;;8.00;100.00;101721.38;5163321;28;20066;-80
2022/11/30 09:16:40;;;;;;;26.30;10.73;;;8.20;99.90;;;7.97;100.00;101737.69;5155876;28;20078;-80
2022/11/30 09:19:12;;;;;;;28.80;11.18;;;8.20;99.90;;;7.98;100.00;101728.19;5145673;28;20047;-80
2022/11/30 09:21:46;;;;;;;29.60;11.40;;;8.20;99.90;;;7.98;100.00;101731.69;5163177;28;20038;-79
2022/11/30 09:24:20;;;;;;;25.27;10.05;;;8.20;99.90;;;7.97;100.00;101731.59;5162195;28;20133;-79
2022/11/30 09:26:56;;;;;;;27.95;10.85;;;8.20;99.90;;;7.98;100.00;101734.28;5161176;28;20437;-80
2022/11/30 09:29:28;;;;;;;27.35;10.02;;;8.20;99.90;;;7.99;100.00;101725.69;5164040;28;20038;-79
2022/11/30 09:32:00;;;;;;;29.38;10.40;;;8.20;99.90;;;8.02;100.00;101735.34;5164590;28;20053;-81
2022/11/30 09:34:33;;;;;;;26.20;10.55;;;8.20;99.90;;;8.07;100.00;101744.31;5163369;28;20043;-79
2022/11/30 09:37:05;;;;;;;25.80;10.02;;;8.30;99.90;;;8.10;100.00;101739.31;5162107;28;20410;-81
2022/11/30 09:39:39;;;;;;;27.77;9.93;;;8.30;99.90;;;8.11;100.00;101741.13;5162594;28;20051;-80
2022/11/30 09:42:40;;;;;;;25.83;9.52;;;8.30;99.90;;;8.13;100.00;101742.97;5145364;28;20582;-80
2022/11/30 09:45:20;;;;;;;27.58;10.15;;;8.30;99.90;;;8.14;100.00;101743.88;5142622;28;20221;-79
2022/11/30 09:48:41;;;;;;;26.20;9.38;;;8.40;99.90;;;8.16;100.00;101735.38;5126727;28;20594;-80
2022/11/30 09:51:25;;;;;;;29.63;11.45;;;8.40;99.90;;;8.14;100.00;101736.09;5124826;28;20057;-80
2022/11/30 09:54:05;;;;;;;26.35;10.90;;;8.40;99.90;;;8.15;100.00;101732.72;5148182;28;20076;-80
2022/11/30 09:56:41;;;;;;;27.48;10.18;;;8.40;99.90;;;8.17;100.00;101736.28;5157414;28;20146;-79
2022/11/30 09:59:20;;;;;;;29.45;12.27;;;8.40;99.90;;;8.16;100.00;101734.50;5158272;28;20057;-80
2022/11/30 10:01:53;;;;;;;24.08;10.77;;;8.40;99.90;;;8.16;100.00;101740.59;5157427;28;20050;-79
2022/11/30 10:04:28;;;;;;;27.73;10.82;;;8.40;99.90;;;8.16;100.00;101735.38;5162220;28;20145;-80
2022/11/30 10:07:16;;;;;;;26.55;10.68;;;8.40;99.90;;;8.16;100.00;101734.50;5164039;28;20059;-80
2022/11/30 10:15:33;;;;;;;23.25;10.35;;;8.40;99.90;;;8.18;100.00;101735.47;5593593;23;20435;-57
2022/11/30 10:18:15;;;;;;;23.75;8.00;;;8.40;99.90;;;8.18;100.00;101735.47;5143822;28;20424;-58
2022/11/30 10:20:59;;;;;;;23.80;9.75;;;8.40;99.90;;;8.21;100.00;101733.03;5142139;28;20063;-58
2022/11/30 10:23:48;;;;;;;25.95;9.55;;;8.40;99.90;;;8.22;100.00;101732.25;5123288;29;20047;-59
2022/11/30 10:26:26;;;;;;;22.27;9.45;;;8.40;99.90;;;8.21;100.00;101735.63;5103354;29;20079;-59
2022/11/30 10:29:07;;;;;;;25.05;9.70;;;8.40;99.90;;;8.21;100.00;101726.94;5225491;23;20054;-61
2022/11/30 10:31:42;;;;;;;27.52;11.52;;;8.40;99.90;;;8.18;100.00;101727.69;5144001;28;20101;-60
2022/11/30 10:34:20;;;;;;;30.15;11.07;;;8.40;99.90;;;8.18;100.00;101732.88;5143323;28;20046;-59
2022/11/30 10:37:01;;;;;;;29.92;11.65;;;8.40;99.90;;;8.28;100.00;101731.69;5121233;28;20050;-60
2022/11/30 10:39:41;;;;;;;28.23;11.57;;;8.50;99.90;;;8.39;100.00;101728.97;5152933;28;20047;-59
2022/11/30 10:42:21;;;;;;;25.48;10.10;;;8.60;99.90;;;8.39;100.00;101728.97;5143566;28;20403;-59
2022/11/30 10:45:00;;;;;;;28.00;11.38;;;8.70;99.90;;;8.36;100.00;101736.59;5143541;28;20074;-61
2022/11/30 10:47:36;;;;;;;26.70;10.55;;;8.60;99.90;;;8.33;100.00;101732.88;5143374;28;20046;-60